CheckWX is a tool to help pilots better visualize weather data.  It is not intended as a substitute for an official pre-flight weather briefing.

06:31:37 UTC

2C8 METAR
Cavalier Municipal Airport
Cavalier, North Dakota, USA
Current

17 mins ago

K2C8 280615Z AUTO 00000KT 10SM OVC029 M11/M12 A3011 RMK AO2
Observed
Feb-28 @ 06:15 UTC
Visibility
10 SM
Flight Rules
MVFR
Cloud Levels
  • Overcast at 2,900' AGL
Temperature
-11°C / 12°F
Dewpoint
-12°C / 10°F
Humidity
92%
Altimeter
30.11" Hg
Pressure
1019.62 hPa
Previous

37 mins ago

K2C8 280555Z AUTO 16003KT 10SM OVC029 M11/M12 A3011 RMK AO2
Observed
Feb-28 @ 05:55 UTC
Wind
  • 160° at 3 KTS
Visibility
10 SM
Flight Rules
MVFR
Cloud Levels
  • Overcast at 2,900' AGL
Temperature
-11°C / 12°F
Dewpoint
-12°C / 10°F
Humidity
92%
Altimeter
30.11" Hg
Pressure
1019.62 hPa
Previous

57 mins ago

K2C8 280535Z AUTO 00000KT 10SM SCT023 OVC031 M11/M13 A3011 RMK AO2
Observed
Feb-28 @ 05:35 UTC
Visibility
10 SM
Flight Rules
VFR
Cloud Levels
  • Scattered at 2,300' AGL
  • Overcast at 3,100' AGL
Temperature
-11°C / 12°F
Dewpoint
-13°C / 9°F
Humidity
85%
Altimeter
30.11" Hg
Pressure
1019.62 hPa